Lamont, Washington
Current Conditions -  °F | °C
As of 1:58 AM on Friday 31 Oct 2014 (Local Time) from KSKA Reporting Station
Few Clouds Few Clouds  
Wind Chill: 46°   Ceiling: Unl
Heat Index: 46°   Visibility: 10mi
Dew Point: 43°   Wind: 2mph
Humidity: 90%   Direction: 330°NNW
Pressure: 29.78"   Gusts: NA
Location:  47.2°N, 117.91°W
Report Text: KSKA 310858Z AUTO 33002KT 10SM FEW100 08/06 A2978 RMK AO2 SLP089 T00780062 55009
Loading
Personal Weather Stations






























Interactive Weather Map
Tropical Storm Tracking
New forecast layout! Learn more

10-Day Weather Forecast

Advertisements
Track Severe Weather on mobile